Time;durP1;ratioP1;P1;durP2;ratioP2;P2;SDS_P1;SDS_P2;PMS_P1;PMS_P2;Temp;Humidity;BMP_temperature;BMP_pressure;BME280_temperature;BME280_humidity;BME280_pressure;Samples;Min_cycle;Max_cycle;Signal;HPM_P1;HPM_P2
2021/12/28 00:00:15;;;;;;;;;0.75;0.75;;;;;13.34;71.70;99184.91;6341711;22;45199;-87
2021/12/28 00:02:45;;;;;;;;;1.50;0.75;;;;;13.32;71.93;99173.63;6341104;22;45480;-87
2021/12/28 00:05:12;;;;;;;;;0.50;0.50;;;;;13.31;72.41;99171.94;6312846;22;47350;-87
2021/12/28 00:07:38;;;;;;;;;0.00;0.00;;;;;13.31;72.16;99169.31;6341373;22;45523;-87
2021/12/28 00:10:06;;;;;;;;;1.00;0.00;;;;;13.28;72.49;99165.09;6341373;22;45190;-89
2021/12/28 00:12:34;;;;;;;;;1.50;0.50;;;;;13.31;72.15;99164.03;6313353;22;45483;-92
2021/12/28 00:15:07;;;;;;;;;0.75;0.75;;;;;13.30;72.12;99159.69;6313086;22;47953;-91
2021/12/28 00:20:18;;;;;;;;;2.50;2.25;;;;;13.27;72.61;99150.19;6340888;22;45230;-92
2021/12/28 00:22:43;;;;;;;;;2.00;2.00;;;;;13.28;72.90;99150.09;6313718;22;46068;-91
2021/12/28 00:25:11;;;;;;;;;1.00;0.75;;;;;13.28;72.62;99150.09;6313557;22;46930;-92
2021/12/28 00:27:37;;;;;;;;;2.00;1.25;;;;;13.30;72.43;99152.63;6341445;22;45345;-91
2021/12/28 00:30:03;;;;;;;;;1.00;1.00;;;;;13.31;72.39;99149.03;6341890;22;45364;-92
2021/12/28 00:32:29;;;;;;;;;1.25;0.75;;;;;13.30;72.32;99146.50;6313789;22;45799;-93
2021/12/28 00:34:54;;;;;;;;;2.75;0.50;;;;;13.28;72.43;99149.25;6340033;22;47943;-92
2021/12/28 00:37:20;;;;;;;;;2.25;1.00;;;;;13.29;72.34;99145.66;6341948;22;45285;-92
2021/12/28 00:39:45;;;;;;;;;3.00;1.00;;;;;13.30;72.37;99130.66;6314080;22;45282;-93
2021/12/28 00:42:11;;;;;;;;;1.75;0.00;;;;;13.25;72.26;99128.34;6313062;22;45951;-92
2021/12/28 00:44:36;;;;;;;;;1.00;1.00;;;;;13.26;72.53;99128.25;6313286;22;47316;-92
2021/12/28 00:47:01;;;;;;;;;0.50;0.50;;;;;13.27;72.32;99127.31;6313091;22;45219;-91
2021/12/28 00:49:27;;;;;;;;;1.50;1.00;;;;;13.26;72.28;99122.97;6341330;22;45131;-90
2021/12/28 00:51:54;;;;;;;;;2.25;1.75;;;;;13.26;72.67;99122.97;6312958;22;45189;-90
2021/12/28 00:54:19;;;;;;;;;4.50;1.00;;;;;13.25;72.65;99121.28;6341318;22;46429;-91
2021/12/28 00:56:45;;;;;;;;;0.50;0.50;;;;;13.26;73.03;99130.88;6312935;22;45555;-89
2021/12/28 00:59:12;;;;;;;;;1.00;1.00;;;;;13.26;72.44;99136.16;6341369;22;45081;-87
2021/12/28 01:01:37;;;;;;;;;1.00;1.00;;;;;13.26;72.76;99127.41;6341237;22;45443;-88
2021/12/28 01:04:03;;;;;;;;;1.00;1.00;;;;;13.28;72.40;99143.97;6340772;22;46216;-87
2021/12/28 01:06:29;;;;;;;;;0.75;0.75;;;;;13.27;72.37;99148.41;6340954;22;45270;-87
2021/12/28 01:08:54;;;;;;;;;3.50;1.00;;;;;13.26;72.73;99146.72;6312897;22;45400;-87
2021/12/28 01:11:20;;;;;;;;;5.50;2.00;;;;;13.26;72.57;99144.06;6341120;22;45451;-87
2021/12/28 01:13:45;;;;;;;;;0.25;0.25;;;;;13.28;72.81;99150.09;6341017;22;46305;-86
2021/12/28 01:16:13;;;;;;;;;1.00;1.00;;;;;13.30;72.71;99146.50;6340994;22;45194;-86
2021/12/28 01:18:42;;;;;;;;;3.25;1.00;;;;;13.29;72.75;99140.38;6340504;22;45237;-86
2021/12/28 01:21:08;;;;;;;;;1.00;1.00;;;;;13.28;72.65;99155.34;6340816;22;45454;-87
2021/12/28 01:23:34;;;;;;;;;0.75;0.75;;;;;13.30;72.82;99149.13;6341060;22;46334;-86
2021/12/28 01:26:01;;;;;;;;;0.00;0.00;;;;;13.33;72.76;99151.56;6341034;22;45313;-92
2021/12/28 01:28:27;;;;;;;;;0.25;0.00;;;;;13.32;73.02;99140.16;6313273;22;45689;-94
2021/12/28 01:30:52;;;;;;;;;0.00;0.00;;;;;13.35;72.99;99147.88;6313193;22;46282;-92
2021/12/28 01:33:17;;;;;;;;;0.25;0.25;;;;;13.34;72.77;99145.31;6313023;22;47354;-92
2021/12/28 01:35:43;;;;;;;;;0.00;0.00;;;;;13.35;72.63;99145.25;6312761;22;45198;-92
2021/12/28 01:38:08;;;;;;;;;0.00;0.00;;;;;13.34;72.85;99140.91;6313490;22;45177;-94
2021/12/28 01:40:37;;;;;;;;;0.75;0.00;;;;;13.33;73.00;99151.56;6312938;22;45832;-91
2021/12/28 01:43:10;;;;;;;;;0.00;0.00;;;;;13.34;72.57;99156.72;6312967;22;48185;-90
2021/12/28 01:45:51;;;;;;;;;0.00;0.00;;;;;13.33;72.54;99155.06;6312704;22;45238;-94
2021/12/28 01:48:25;;;;;;;;;0.00;0.00;;;;;13.32;72.54;99160.44;6313134;22;45223;-95
2021/12/28 01:50:55;;;;;;;;;0.00;0.00;;;;;13.32;73.06;99166.56;6313060;22;47405;-93
2021/12/28 01:53:22;;;;;;;;;0.00;0.00;;;;;13.30;72.56;99168.47;6313230;22;47055;-93
2021/12/28 01:55:50;;;;;;;;;0.00;0.00;;;;;13.30;72.63;99179.00;6314028;22;45402;-93
2021/12/28 01:58:16;;;;;;;;;0.00;0.00;;;;;13.31;72.86;99185.16;6314673;22;45202;-94
2021/12/28 02:00:44;;;;;;;;;0.00;0.00;;;;;13.30;72.81;99178.16;6342729;22;45151;-88
2021/12/28 02:03:13;;;;;;;;;0.00;0.00;;;;;13.33;73.32;99188.50;6313495;22;47065;-88
2021/12/28 02:05:39;;;;;;;;;0.00;0.00;;;;;13.35;73.19;99191.88;6341253;22;45261;-87
2021/12/28 02:08:06;;;;;;;;;0.00;0.00;;;;;13.34;73.47;99191.03;6342163;22;45294;-87
2021/12/28 02:10:33;;;;;;;;;0.00;0.00;;;;;13.35;73.41;99202.44;6313651;22;46940;-87
2021/12/28 02:12:58;;;;;;;;;0.00;0.00;;;;;13.37;73.26;99211.94;6342438;22;45231;-95
2021/12/28 02:15:24;;;;;;;;;0.00;0.00;;;;;13.36;73.38;99220.78;6314968;22;45096;-95
2021/12/28 02:17:49;;;;;;;;;0.00;0.00;;;;;13.40;73.74;99224.09;6314783;22;45084;-94
2021/12/28 02:20:18;;;;;;;;;0.00;0.00;;;;;13.41;73.45;99228.38;6314098;22;45783;-86
2021/12/28 02:22:43;;;;;;;;;0.00;0.00;;;;;13.42;73.74;99237.16;6341855;22;45421;-87
2021/12/28 02:25:10;;;;;;;;;0.00;0.00;;;;;13.43;73.55;99237.06;6341869;22;45687;-84
2021/12/28 02:27:36;;;;;;;;;0.00;0.00;;;;;13.45;73.53;99236.94;6341667;22;45236;-85
2021/12/28 02:30:05;;;;;;;;;0.75;0.00;;;;;13.45;73.68;99258.91;6341968;22;45286;-87
2021/12/28 02:32:30;;;;;;;;;0.00;0.00;;;;;13.45;73.39;99253.63;6341302;22;46458;-86
2021/12/28 02:34:57;;;;;;;;;0.75;0.00;;;;;13.48;73.26;99256.03;6341919;22;45416;-85
2021/12/28 02:37:23;;;;;;;;;0.00;0.00;;;;;13.52;73.22;99255.84;6341814;22;45314;-85
2021/12/28 02:39:49;;;;;;;;;0.00;0.00;;;;;13.53;73.05;99260.19;6313617;22;46051;-85
2021/12/28 02:42:21;;;;;;;;;0.00;0.00;;;;;13.55;72.77;99260.91;6341718;22;45367;-86
2021/12/28 02:44:56;;;;;;;;;0.00;0.00;;;;;13.55;72.80;99263.56;6313678;22;45453;-86
2021/12/28 02:47:21;;;;;;;;;0.00;0.00;;;;;13.56;72.72;99278.44;6341785;22;45204;-87
2021/12/28 02:49:46;;;;;;;;;0.00;0.00;;;;;13.55;72.49;99287.31;6341212;22;45364;-86
2021/12/28 02:52:12;;;;;;;;;0.00;0.00;;;;;13.50;72.38;99291.13;6341723;22;45388;-87
2021/12/28 02:54:39;;;;;;;;;0.00;0.00;;;;;13.49;72.55;99297.34;6341992;22;45346;-88
2021/12/28 02:57:05;;;;;;;;;0.00;0.00;;;;;13.53;72.49;99315.63;6342115;22;45340;-87
2021/12/28 02:59:31;;;;;;;;;0.50;0.00;;;;;13.49;72.35;99318.47;6341791;22;45222;-88
2021/12/28 03:01:56;;;;;;;;;0.00;0.00;;;;;13.48;72.48;99319.38;6341471;22;46595;-89
2021/12/28 03:04:24;;;;;;;;;0.00;0.00;;;;;13.48;72.41;99326.50;6312912;22;45239;-88
2021/12/28 03:06:50;;;;;;;;;0.00;0.00;;;;;13.47;72.09;99328.28;6341666;22;45227;-88
2021/12/28 03:09:18;;;;;;;;;0.50;0.00;;;;;13.48;72.37;99337.88;6342491;22;45335;-94
2021/12/28 03:11:44;;;;;;;;;0.00;0.00;;;;;13.48;72.50;99329.94;6314103;22;47718;-92
2021/12/28 03:14:10;;;;;;;;;0.00;0.00;;;;;13.46;72.42;99331.84;6342265;22;45277;-93
2021/12/28 03:16:35;;;;;;;;;0.00;0.00;;;;;13.47;72.62;99333.56;6313906;22;45441;-91
2021/12/28 03:19:01;;;;;;;;;0.50;0.50;;;;;13.46;72.17;99342.41;6341224;22;45250;-89
2021/12/28 03:21:27;;;;;;;;;0.00;0.00;;;;;13.45;71.97;99339.88;6340901;22;46089;-89
2021/12/28 03:23:54;;;;;;;;;0.00;0.00;;;;;13.43;72.15;99342.63;6313918;22;45234;-88
2021/12/28 03:26:20;;;;;;;;;0.00;0.00;;;;;13.45;72.13;99346.00;6313625;22;45249;-88
2021/12/28 03:28:46;;;;;;;;;0.00;0.00;;;;;13.43;72.18;99340.00;6312884;22;45216;-89
2021/12/28 03:31:14;;;;;;;;;0.00;0.00;;;;;13.44;71.92;99349.59;6313572;22;46076;-89
2021/12/28 03:33:41;;;;;;;;;0.50;0.00;;;;;13.44;72.17;99359.28;6341066;22;45517;-89
2021/12/28 03:36:08;;;;;;;;;0.00;0.00;;;;;13.42;72.26;99359.41;6341464;22;45149;-89
2021/12/28 03:38:36;;;;;;;;;0.25;0.25;;;;;13.41;72.28;99355.06;6341245;22;45229;-89
2021/12/28 03:41:07;;;;;;;;;0.00;0.00;;;;;13.41;71.96;99359.53;6341717;22;45452;-89
2021/12/28 03:43:33;;;;;;;;;0.25;0.00;;;;;13.44;72.08;99372.50;6341985;22;45165;-92
2021/12/28 03:45:59;;;;;;;;;0.00;0.00;;;;;13.44;72.16;99369.84;6313370;22;45247;-93
2021/12/28 03:48:24;;;;;;;;;0.00;0.00;;;;;13.42;72.44;99372.59;6314158;22;45671;-92
2021/12/28 03:50:50;;;;;;;;;0.00;0.00;;;;;13.45;72.31;99374.19;6342083;22;45297;-95
2021/12/28 03:53:15;;;;;;;;;1.75;0.00;;;;;13.47;72.08;99378.44;6314528;22;45180;-94
2021/12/28 03:55:40;;;;;;;;;0.00;0.00;;;;;13.47;72.39;99381.06;6314042;22;45095;-92
2021/12/28 03:58:06;;;;;;;;;0.25;0.25;;;;;13.49;72.36;99384.44;6342311;22;45362;-93
2021/12/28 04:00:37;;;;;;;;;0.00;0.00;;;;;13.47;72.48;99374.94;6342103;22;46537;-87
2021/12/28 04:03:03;;;;;;;;;0.00;0.00;;;;;13.48;72.64;99368.72;6312784;22;45457;-86
2021/12/28 04:05:28;;;;;;;;;0.00;0.00;;;;;13.49;72.15;99384.44;6341631;22;45187;-85
2021/12/28 04:07:54;;;;;;;;;0.00;0.00;;;;;13.49;72.28;99384.44;6341797;22;45198;-86
2021/12/28 04:10:28;;;;;;;;;1.25;0.50;;;;;13.50;72.50;99382.66;6341634;22;45202;-87
2021/12/28 04:12:53;;;;;;;;;0.00;0.00;;;;;13.52;72.20;99387.81;6341473;22;45224;-87
2021/12/28 04:15:19;;;;;;;;;0.25;0.25;;;;;13.53;72.25;99387.69;6341452;22;45549;-90
2021/12/28 04:17:44;;;;;;;;;0.00;0.00;;;;;13.50;71.91;99386.16;6340942;22;45166;-84
2021/12/28 04:20:17;;;;;;;;;0.25;0.00;;;;;13.52;71.95;99391.31;6341146;22;45417;-84
2021/12/28 04:22:44;;;;;;;;;0.00;0.00;;;;;13.49;72.17;99394.16;6341402;22;45254;-84
2021/12/28 04:25:14;;;;;;;;;1.75;0.00;;;;;13.48;72.16;99395.94;6340995;22;45456;-83
2021/12/28 04:27:40;;;;;;;;;0.75;0.00;;;;;13.48;72.12;99392.47;6341077;22;45323;-82
2021/12/28 04:30:07;;;;;;;;;0.00;0.00;;;;;13.48;72.08;99403.84;6341339;22;45398;-83
2021/12/28 04:32:33;;;;;;;;;0.00;0.00;;;;;13.44;72.43;99405.00;6340840;22;45145;-83
2021/12/28 04:34:58;;;;;;;;;1.00;0.75;;;;;13.46;72.34;99412.81;6313035;22;45164;-87
2021/12/28 04:37:24;;;;;;;;;0.25;0.00;;;;;13.46;72.11;99421.59;6341584;22;45136;-86
2021/12/28 04:39:49;;;;;;;;;0.00;0.00;;;;;13.48;72.47;99418.88;6341492;22;46542;-87
2021/12/28 04:42:15;;;;;;;;;0.75;0.00;;;;;13.48;72.49;99424.97;6312881;22;45484;-87
2021/12/28 04:44:40;;;;;;;;;0.00;0.00;;;;;13.50;72.45;99425.75;6341664;22;45188;-86
2021/12/28 04:47:06;;;;;;;;;0.00;0.00;;;;;13.49;72.37;99415.25;6340768;22;45365;-84
2021/12/28 04:49:31;;;;;;;;;0.00;0.00;;;;;13.53;72.51;99415.91;6341338;22;45405;-86
2021/12/28 04:51:57;;;;;;;;;0.00;0.00;;;;;13.55;72.17;99412.22;6312933;22;45404;-85
2021/12/28 04:54:23;;;;;;;;;0.75;0.75;;;;;13.58;72.41;99408.56;6313080;22;45364;-86
2021/12/28 04:56:49;;;;;;;;;0.00;0.00;;;;;13.59;72.15;99415.53;6341042;22;45211;-86
2021/12/28 04:59:16;;;;;;;;;0.00;0.00;;;;;13.60;72.08;99404.03;6341130;22;45403;-85
2021/12/28 05:01:42;;;;;;;;;1.75;0.00;;;;;13.60;72.10;99407.53;6341349;22;45400;-85
2021/12/28 05:04:08;;;;;;;;;1.00;0.00;;;;;13.63;72.18;99406.44;6313223;22;45269;-86
2021/12/28 05:06:37;;;;;;;;;0.75;0.00;;;;;13.64;71.91;99423.13;6340772;22;45586;-87
2021/12/28 05:09:05;;;;;;;;;0.00;0.00;;;;;13.65;71.95;99432.75;6340939;22;45379;-90
2021/12/28 05:11:33;;;;;;;;;2.75;0.50;;;;;13.67;71.95;99447.56;6313353;22;45482;-89
2021/12/28 05:13:59;;;;;;;;;0.00;0.00;;;;;13.66;72.07;99445.84;6341551;22;45081;-87
2021/12/28 05:16:29;;;;;;;;;0.00;0.00;;;;;13.66;72.06;99437.06;6341105;22;45164;-87
2021/12/28 05:18:55;;;;;;;;;0.00;0.00;;;;;13.69;71.78;99445.66;6312056;22;47657;-87
2021/12/28 05:21:20;;;;;;;;;0.00;0.00;;;;;13.68;71.50;99446.59;6340007;22;45204;-88
2021/12/28 05:23:45;;;;;;;;;0.25;0.00;;;;;13.68;71.35;99451.88;6341432;22;45406;-88
2021/12/28 05:26:11;;;;;;;;;1.75;0.75;;;;;13.72;71.86;99466.56;6311775;22;46877;-86
2021/12/28 05:28:37;;;;;;;;;0.00;0.00;;;;;13.72;71.49;99469.22;6340855;22;45174;-86
2021/12/28 05:31:02;;;;;;;;;0.00;0.00;;;;;13.72;71.22;99469.22;6341223;22;45124;-88
2021/12/28 05:33:28;;;;;;;;;1.50;0.75;;;;;13.72;71.64;99479.78;6312841;22;45436;-91
2021/12/28 05:35:53;;;;;;;;;0.25;0.25;;;;;13.74;71.62;99487.59;6312620;22;45841;-87
2021/12/28 05:38:19;;;;;;;;;1.75;0.00;;;;;13.77;71.02;99483.91;6340510;22;45491;-89
2021/12/28 05:40:44;;;;;;;;;1.00;1.00;;;;;13.75;71.36;99485.78;6340449;22;45222;-84
2021/12/28 05:43:09;;;;;;;;;1.00;0.00;;;;;13.76;70.84;99488.31;6341271;22;45222;-91
2021/12/28 05:45:35;;;;;;;;;2.50;1.00;;;;;13.76;71.28;99480.41;6341183;22;45497;-91
2021/12/28 05:48:00;;;;;;;;;0.00;0.00;;;;;13.79;71.06;99487.28;6312484;22;46902;-90
2021/12/28 05:50:26;;;;;;;;;2.75;2.00;;;;;13.80;70.71;99499.53;6311971;22;45227;-90
2021/12/28 05:52:51;;;;;;;;;1.00;1.00;;;;;13.81;70.99;99498.56;6340963;22;45844;-88
2021/12/28 05:55:16;;;;;;;;;0.50;0.00;;;;;13.82;70.94;99509.06;6309479;22;45364;-91
2021/12/28 05:57:42;;;;;;;;;2.50;0.00;;;;;13.83;70.62;99512.53;6339224;22;45397;-92
2021/12/28 06:00:10;;;;;;;;;0.50;0.50;;;;;13.84;70.49;99517.72;6340051;22;45458;-92
2021/12/28 06:02:37;;;;;;;;;0.00;0.00;;;;;13.86;70.33;99511.47;6340561;22;45302;-92
2021/12/28 06:05:03;;;;;;;;;4.00;1.00;;;;;13.84;70.10;99515.06;6340833;22;45098;-92
2021/12/28 06:07:29;;;;;;;;;0.00;0.00;;;;;13.86;69.72;99524.69;6339602;22;46493;-91
2021/12/28 06:09:56;;;;;;;;;0.50;0.00;;;;;13.84;70.17;99515.06;6339924;22;45077;-88
2021/12/28 06:12:21;;;;;;;;;2.25;1.00;;;;;13.87;69.72;99531.66;6339221;22;45401;-87
2021/12/28 06:14:47;;;;;;;;;1.00;0.25;;;;;13.88;69.96;99538.66;6339691;22;45509;-92
2021/12/28 06:17:12;;;;;;;;;0.25;0.00;;;;;13.85;69.91;99539.69;6311070;22;47111;-93
2021/12/28 06:19:37;;;;;;;;;2.50;0.00;;;;;13.88;70.13;99547.41;6340120;22;45320;-93
2021/12/28 06:22:04;;;;;;;;;1.00;0.50;;;;;13.87;69.96;99544.88;6311233;22;45536;-90
2021/12/28 06:24:29;;;;;;;;;0.50;0.00;;;;;13.86;69.46;99548.44;6339248;22;45419;-90
2021/12/28 06:26:54;;;;;;;;;1.25;1.00;;;;;13.82;69.64;99556.59;6310844;22;46205;-89
2021/12/28 06:29:20;;;;;;;;;0.00;0.00;;;;;13.82;69.33;99555.75;6339163;22;45333;-91
2021/12/28 06:31:45;;;;;;;;;3.75;1.00;;;;;13.80;69.73;99566.38;6339146;22;45309;-87
2021/12/28 06:34:11;;;;;;;;;3.00;0.75;;;;;13.82;69.81;99569.81;6339822;22;45472;-88
2021/12/28 06:36:37;;;;;;;;;3.00;1.00;;;;;13.83;69.67;99570.63;6339662;22;46618;-91
2021/12/28 06:39:03;;;;;;;;;0.00;0.00;;;;;13.82;69.44;99585.66;6341180;22;45210;-91
2021/12/28 06:41:28;;;;;;;;;1.50;0.00;;;;;13.82;69.36;99596.22;6313650;22;45235;-92
2021/12/28 06:43:54;;;;;;;;;2.00;0.75;;;;;13.81;69.38;99602.44;6342509;22;45093;-92
2021/12/28 06:46:20;;;;;;;;;2.75;1.00;;;;;13.79;69.30;99611.41;6342323;22;46182;-92
2021/12/28 06:48:45;;;;;;;;;3.25;0.25;;;;;13.78;69.24;99615.00;6342450;22;45188;-93
2021/12/28 06:51:11;;;;;;;;;0.50;0.50;;;;;13.72;69.08;99609.16;6314448;22;45179;-89
2021/12/28 06:53:37;;;;;;;;;2.00;0.00;;;;;13.70;69.08;99608.38;6341666;22;45208;-89
2021/12/28 06:56:03;;;;;;;;;1.50;1.00;;;;;13.71;68.96;99625.09;6341575;22;46451;-89
2021/12/28 06:58:29;;;;;;;;;0.75;0.75;;;;;13.68;69.03;99628.78;6313212;22;45361;-89
2021/12/28 07:00:54;;;;;;;;;1.75;1.00;;;;;13.62;68.97;99610.69;6341855;22;45368;-90
2021/12/28 07:03:20;;;;;;;;;4.25;0.00;;;;;13.58;69.35;99598.66;6341396;22;45365;-89
2021/12/28 07:05:45;;;;;;;;;2.00;0.75;;;;;13.57;69.43;99602.22;6341125;22;45278;-89
2021/12/28 07:08:11;;;;;;;;;1.00;1.00;;;;;13.55;69.36;99612.84;6340838;22;45368;-89
2021/12/28 07:10:36;;;;;;;;;0.75;0.75;;;;;13.57;69.59;99618.06;6313329;22;45138;-89
2021/12/28 07:13:02;;;;;;;;;1.75;0.75;;;;;13.55;69.20;99619.94;6341270;22;45134;-89
2021/12/28 07:15:27;;;;;;;;;1.00;0.00;;;;;13.54;68.93;99632.28;6313357;22;48414;-89
2021/12/28 07:17:53;;;;;;;;;0.50;0.50;;;;;13.57;69.20;99631.25;6313460;22;45073;-93
2021/12/28 07:20:19;;;;;;;;;1.75;1.00;;;;;13.57;69.00;99628.63;6314130;22;45381;-96
2021/12/28 07:22:44;;;;;;;;;3.50;1.50;;;;;13.58;68.74;99625.88;6314384;22;47074;-91
2021/12/28 07:25:10;;;;;;;;;2.00;1.50;;;;;13.60;68.78;99612.59;6314578;22;48013;-93
2021/12/28 07:27:37;;;;;;;;;1.00;1.00;;;;;13.58;68.67;99617.13;6314627;22;45156;-94
2021/12/28 07:30:07;;;;;;;;;2.00;2.00;;;;;13.60;68.78;99631.06;6314411;22;45268;-94
2021/12/28 07:32:32;;;;;;;;;0.75;0.75;;;;;13.61;68.94;99635.38;6342010;22;45403;-95
2021/12/28 07:34:57;;;;;;;;;1.25;1.25;;;;;13.63;68.89;99628.22;6314505;22;46831;-93
2021/12/28 07:37:23;;;;;;;;;3.25;1.75;;;;;13.64;68.51;99627.28;6313226;22;45172;-85
2021/12/28 07:39:50;;;;;;;;;2.50;2.00;;;;;13.65;68.68;99625.50;6313125;22;45128;-85
2021/12/28 07:42:17;;;;;;;;;2.00;1.00;;;;;13.67;69.02;99628.88;6341548;22;45198;-82
2021/12/28 07:44:43;;;;;;;;;2.25;1.00;;;;;13.68;68.66;99639.34;6340936;22;45373;-83
2021/12/28 07:47:08;;;;;;;;;1.50;1.50;;;;;13.67;68.71;99629.72;6340927;22;45344;-83
2021/12/28 07:49:34;;;;;;;;;2.00;1.75;;;;;13.68;68.55;99646.44;6341330;22;45281;-83
2021/12/28 07:51:59;;;;;;;;;3.25;0.25;;;;;13.70;68.81;99655.91;6340817;22;45244;-83
2021/12/28 07:54:24;;;;;;;;;2.75;1.50;;;;;13.70;68.44;99671.75;6340821;22;45447;-83
2021/12/28 07:56:50;;;;;;;;;0.75;0.75;;;;;13.73;68.71;99673.38;6341353;22;45384;-84
2021/12/28 07:59:15;;;;;;;;;1.25;1.25;;;;;13.73;68.51;99668.94;6312557;22;45409;-83
2021/12/28 08:01:40;;;;;;;;;2.50;0.00;;;;;13.76;68.80;99672.31;6340516;22;45285;-83
2021/12/28 08:04:06;;;;;;;;;0.00;0.00;;;;;13.77;68.67;99668.75;6340582;22;46441;-83
2021/12/28 08:06:31;;;;;;;;;6.00;2.00;;;;;13.79;68.88;99675.63;6341050;22;45244;-83
2021/12/28 08:08:57;;;;;;;;;3.75;3.00;;;;;13.82;68.34;99679.88;6341432;22;45173;-82
2021/12/28 08:11:23;;;;;;;;;1.75;1.75;;;;;13.81;68.57;99680.81;6312747;22;46089;-82
2021/12/28 08:13:49;;;;;;;;;1.50;1.00;;;;;13.81;68.39;99686.09;6341001;22;46263;-83
2021/12/28 08:16:15;;;;;;;;;1.00;1.00;;;;;13.81;68.94;99692.22;6341314;22;45174;-83
2021/12/28 08:18:40;;;;;;;;;3.00;2.75;;;;;13.84;68.78;99701.75;6312772;22;45599;-83
2021/12/28 08:21:06;;;;;;;;;2.75;1.75;;;;;13.84;69.28;99694.69;6340693;22;45132;-83
2021/12/28 08:23:31;;;;;;;;;3.25;2.00;;;;;13.88;69.92;99694.50;6341153;22;45234;-83
2021/12/28 08:25:56;;;;;;;;;2.00;1.00;;;;;13.86;69.87;99697.22;6341042;22;45227;-83
2021/12/28 08:28:22;;;;;;;;;1.50;1.25;;;;;13.89;69.90;99709.38;6341729;22;45310;-83
2021/12/28 08:30:47;;;;;;;;;0.25;0.25;;;;;13.87;70.24;99709.47;6341086;22;45334;-83
2021/12/28 08:33:13;;;;;;;;;1.00;1.00;;;;;13.88;70.28;99703.25;6340664;22;46532;-83
2021/12/28 08:35:40;;;;;;;;;3.00;1.00;;;;;13.88;70.41;99715.63;6312738;22;45321;-83
2021/12/28 08:38:11;;;;;;;;;3.00;1.00;;;;;13.90;70.57;99733.03;6341154;22;45195;-85
2021/12/28 08:40:40;;;;;;;;;3.00;1.00;;;;;13.89;70.59;99735.78;6341514;22;45385;-85
2021/12/28 08:43:06;;;;;;;;;2.00;0.25;;;;;13.87;70.54;99742.97;6341165;22;46703;-84
2021/12/28 08:45:32;;;;;;;;;3.25;1.25;;;;;13.85;70.73;99745.72;6340888;22;45528;-84
2021/12/28 08:47:57;;;;;;;;;0.00;0.00;;;;;13.83;71.18;99747.56;6340708;22;45163;-84
2021/12/28 08:50:23;;;;;;;;;3.00;0.75;;;;;13.82;71.26;99743.25;6340826;22;45389;-85
2021/12/28 08:52:49;;;;;;;;;4.00;1.00;;;;;13.82;70.80;99759.97;6341007;22;45313;-84
2021/12/28 08:55:16;;;;;;;;;0.50;0.00;;;;;13.80;71.23;99766.28;6341601;22;45171;-84
2021/12/28 08:57:42;;;;;;;;;2.25;0.00;;;;;13.77;71.03;99761.19;6341245;22;45312;-85
2021/12/28 09:00:11;;;;;;;;;4.50;2.50;;;;;13.74;70.91;99756.94;6312401;22;46794;-84
2021/12/28 09:02:37;;;;;;;;;1.00;1.00;;;;;13.78;71.51;99760.25;6340599;22;46537;-86
2021/12/28 09:05:02;;;;;;;;;1.00;1.00;;;;;13.79;71.16;99759.28;6312186;22;45194;-85
2021/12/28 09:07:28;;;;;;;;;1.25;0.50;;;;;13.80;71.13;99761.00;6341154;22;45236;-83
2021/12/28 09:09:53;;;;;;;;;3.75;1.50;;;;;13.79;71.00;99754.84;6340875;22;45208;-84
2021/12/28 09:12:19;;;;;;;;;3.75;1.00;;;;;13.80;71.12;99751.25;6340312;22;46135;-82
2021/12/28 09:14:44;;;;;;;;;1.25;1.25;;;;;13.83;70.74;99763.41;6340381;22;45273;-83
2021/12/28 09:17:10;;;;;;;;;0.00;0.00;;;;;13.84;70.45;99762.50;6341359;22;45215;-81
2021/12/28 09:19:36;;;;;;;;;2.00;1.00;;;;;13.86;70.40;99778.22;6341112;22;45189;-83
2021/12/28 09:22:03;;;;;;;;;2.00;0.50;;;;;13.86;70.07;99772.94;6311916;22;46936;-83
2021/12/28 09:24:29;;;;;;;;;2.25;1.50;;;;;13.83;69.55;99780.13;6340391;22;45360;-83
2021/12/28 09:26:54;;;;;;;;;1.00;1.00;;;;;13.83;69.63;99780.13;6312220;22;45290;-84
2021/12/28 09:29:20;;;;;;;;;2.50;1.50;;;;;13.84;68.93;99773.06;6312521;22;47371;-84
2021/12/28 09:31:45;;;;;;;;;1.00;1.00;;;;;13.84;68.80;99776.56;6340009;22;45809;-84
2021/12/28 09:34:11;;;;;;;;;1.75;0.00;;;;;13.84;68.87;99773.06;6332597;22;45396;-84
2021/12/28 09:36:40;;;;;;;;;0.50;0.50;;;;;13.84;68.71;99779.19;6333925;22;45823;-85
2021/12/28 09:39:06;;;;;;;;;2.25;0.25;;;;;13.87;68.63;99778.16;6338688;22;45179;-84
2021/12/28 09:41:32;;;;;;;;;2.50;1.50;;;;;13.86;67.74;99775.59;6337993;22;46020;-83
2021/12/28 09:43:58;;;;;;;;;1.75;1.25;;;;;13.86;67.44;99781.72;6339094;22;45615;-85
2021/12/28 09:46:23;;;;;;;;;1.50;0.75;;;;;13.87;67.10;99786.09;6340773;22;45259;-84
2021/12/28 09:48:48;;;;;;;;;4.00;1.00;;;;;13.89;66.47;99789.47;6340509;22;45360;-86
2021/12/28 09:51:14;;;;;;;;;1.00;0.00;;;;;13.86;65.96;99787.00;6340212;22;46172;-78
2021/12/28 09:53:41;;;;;;;;;1.50;1.00;;;;;13.87;66.19;99788.72;6340448;22;45297;-79
2021/12/28 09:56:07;;;;;;;;;84.00;74.25;;;;;13.89;66.79;99796.53;6341021;22;45184;-75
2021/12/28 09:58:37;;;;;;;;;4.75;2.75;;;;;13.86;65.20;99818.72;6340438;22;45504;-88
2021/12/28 10:01:08;;;;;;;;;2.50;1.75;;;;;13.86;63.71;99816.06;6312061;22;48135;-87
2021/12/28 10:03:35;;;;;;;;;9.25;8.75;;;;;13.89;64.78;99801.81;6311756;22;45894;-88
2021/12/28 10:06:18;;;;;;;;;3.00;2.00;;;;;13.92;63.59;99823.63;6340326;22;45263;-87
2021/12/28 10:08:44;;;;;;;;;16.75;13.75;;;;;13.91;63.17;99808.72;6312205;22;46137;-88
2021/12/28 10:11:10;;;;;;;;;8.25;3.00;;;;;13.91;62.53;99819.28;6340656;22;46128;-88
2021/12/28 10:13:35;;;;;;;;;3.50;1.50;;;;;13.89;61.81;99823.81;6311949;22;46103;-88
2021/12/28 10:16:01;;;;;;;;;11.25;10.25;;;;;13.89;63.40;99818.53;6341100;22;45184;-87
2021/12/28 10:18:27;;;;;;;;;1.75;1.75;;;;;13.89;62.43;99823.81;6342007;22;45226;-87
2021/12/28 10:21:00;;;;;;;;;3.50;1.75;;;;;13.90;62.62;99819.38;6341395;22;46569;-87
2021/12/28 10:23:28;;;;;;;;;4.75;4.00;;;;;13.87;61.77;99825.69;6313261;22;45348;-87
2021/12/28 10:25:57;;;;;;;;;4.75;3.00;;;;;13.87;61.69;99836.25;6342224;22;45343;-87
2021/12/28 10:28:28;;;;;;;;;2.25;2.00;;;;;13.89;61.50;99850.22;6341599;22;45459;-87
2021/12/28 10:31:02;;;;;;;;;5.50;4.75;;;;;13.87;62.43;99849.47;6341987;22;46427;-88
2021/12/28 10:33:29;;;;;;;;;8.25;7.50;;;;;13.88;61.62;99839.75;6312957;22;45270;-89
2021/12/28 10:35:58;;;;;;;;;4.25;2.00;;;;;13.90;61.02;99843.97;6341986;22;45320;-87
2021/12/28 10:38:28;;;;;;;;;10.00;8.00;;;;;13.91;61.12;99842.19;6313432;22;47182;-88
2021/12/28 10:40:59;;;;;;;;;7.00;4.00;;;;;13.94;61.67;99847.28;6341753;22;45367;-87
2021/12/28 10:43:27;;;;;;;;;9.75;8.75;;;;;13.93;61.42;99835.88;6313728;22;45449;-87
2021/12/28 10:46:01;;;;;;;;;5.25;3.00;;;;;13.98;61.34;99848.78;6341405;22;45184;-87
2021/12/28 10:48:50;;;;;;;;;6.00;2.25;;;;;14.02;60.86;99857.41;6313143;22;45973;-87
2021/12/28 10:51:26;;;;;;;;;7.50;4.50;;;;;14.04;61.27;99856.34;6341533;22;45379;-87
2021/12/28 10:54:23;;;;;;;;;9.50;7.25;;;;;14.07;61.70;99842.09;6341237;22;45151;-88
2021/12/28 10:56:57;;;;;;;;;5.75;4.75;;;;;14.06;60.51;99843.91;6336445;22;45435;-87
2021/12/28 10:59:26;;;;;;;;;7.50;3.00;;;;;14.04;61.10;99842.28;6313614;22;46086;-87
2021/12/28 11:01:52;;;;;;;;;3.75;2.00;;;;;14.06;61.49;99851.81;6341633;22;45526;-87
2021/12/28 11:04:18;;;;;;;;;7.75;5.25;;;;;14.10;60.86;99856.91;6341795;22;45352;-87
2021/12/28 11:06:49;;;;;;;;;8.50;2.00;;;;;14.13;61.30;99862.00;6341901;22;45270;-87
2021/12/28 11:09:24;;;;;;;;;9.50;3.25;;;;;14.15;61.45;99866.25;6313175;22;46506;-88
2021/12/28 11:11:52;;;;;;;;;5.25;4.00;;;;;14.14;61.26;99875.13;6341409;22;45379;-87
2021/12/28 11:14:21;;;;;;;;;6.75;3.00;;;;;14.13;61.36;99873.41;6341762;22;45548;-87
2021/12/28 11:16:58;;;;;;;;;5.25;4.00;;;;;14.11;60.13;99854.19;6341406;22;45264;-87
2021/12/28 11:19:26;;;;;;;;;3.00;2.25;;;;;14.12;61.44;99877.03;6341608;22;45156;-87
2021/12/28 11:21:55;;;;;;;;;9.75;3.75;;;;;14.10;60.98;99865.69;6312565;22;46364;-86
2021/12/28 11:24:20;;;;;;;;;6.75;3.00;;;;;14.09;61.01;99871.91;6341253;22;45550;-87
2021/12/28 11:26:48;;;;;;;;;3.00;2.75;;;;;14.08;61.27;99864.94;6341709;22;45481;-88
2021/12/28 11:29:20;;;;;;;;;4.50;3.25;;;;;14.08;61.95;99880.78;6341791;22;45514;-87
2021/12/28 11:31:59;;;;;;;;;4.25;4.00;;;;;14.07;60.99;99894.94;6341585;22;45637;-87
2021/12/28 11:34:24;;;;;;;;;4.75;2.00;;;;;14.05;61.00;99907.41;6341643;22;45197;-86